sensor_id;sensor_type;location;lat;lon;timestamp;P1;durP1;ratioP1;P2;durP2;ratioP2
26040;SDS011;13816;53.628;9.950;2023-12-20T00:02:16;16.93;;;2.67;;
26040;SDS011;13816;53.628;9.950;2023-12-20T00:04:44;22.23;;;3.93;;
26040;SDS011;13816;53.628;9.950;2023-12-20T00:07:11;23.60;;;2.70;;
26040;SDS011;13816;53.628;9.950;2023-12-20T00:09:38;12.13;;;2.30;;
26040;SDS011;13816;53.628;9.950;2023-12-20T00:12:06;13.93;;;2.43;;
26040;SDS011;13816;53.628;9.950;2023-12-20T00:14:33;15.53;;;3.17;;
26040;SDS011;13816;53.628;9.950;2023-12-20T00:17:00;16.30;;;2.60;;
26040;SDS011;13816;53.628;9.950;2023-12-20T00:19:27;16.27;;;3.00;;
26040;SDS011;13816;53.628;9.950;2023-12-20T00:21:54;19.60;;;2.90;;
26040;SDS011;13816;53.628;9.950;2023-12-20T00:24:21;15.53;;;2.80;;
26040;SDS011;13816;53.628;9.950;2023-12-20T00:26:48;16.27;;;3.37;;
26040;SDS011;13816;53.628;9.950;2023-12-20T00:29:15;11.17;;;2.50;;
26040;SDS011;13816;53.628;9.950;2023-12-20T00:31:42;10.43;;;2.90;;
26040;SDS011;13816;53.628;9.950;2023-12-20T00:34:09;8.93;;;2.73;;
26040;SDS011;13816;53.628;9.950;2023-12-20T00:36:37;16.87;;;2.80;;
26040;SDS011;13816;53.628;9.950;2023-12-20T00:39:04;15.67;;;2.93;;
26040;SDS011;13816;53.628;9.950;2023-12-20T00:41:31;18.07;;;3.10;;
26040;SDS011;13816;53.628;9.950;2023-12-20T00:43:58;11.53;;;2.57;;
26040;SDS011;13816;53.628;9.950;2023-12-20T00:46:25;17.00;;;3.17;;
26040;SDS011;13816;53.628;9.950;2023-12-20T00:48:52;23.63;;;3.97;;
26040;SDS011;13816;53.628;9.950;2023-12-20T00:51:19;14.63;;;2.60;;
26040;SDS011;13816;53.628;9.950;2023-12-20T00:53:47;17.97;;;3.10;;
26040;SDS011;13816;53.628;9.950;2023-12-20T00:56:16;17.57;;;3.70;;
26040;SDS011;13816;53.628;9.950;2023-12-20T00:58:43;19.23;;;3.80;;
26040;SDS011;13816;53.628;9.950;2023-12-20T01:01:10;19.63;;;2.93;;
26040;SDS011;13816;53.628;9.950;2023-12-20T01:03:37;19.23;;;2.97;;
26040;SDS011;13816;53.628;9.950;2023-12-20T01:06:05;21.57;;;3.43;;
26040;SDS011;13816;53.628;9.950;2023-12-20T01:08:32;17.37;;;2.57;;
26040;SDS011;13816;53.628;9.950;2023-12-20T01:11:03;14.40;;;2.70;;
26040;SDS011;13816;53.628;9.950;2023-12-20T01:13:31;13.00;;;2.40;;
26040;SDS011;13816;53.628;9.950;2023-12-20T01:15:58;15.33;;;3.23;;
26040;SDS011;13816;53.628;9.950;2023-12-20T01:18:35;13.87;;;2.90;;
26040;SDS011;13816;53.628;9.950;2023-12-20T01:21:02;14.73;;;2.80;;
26040;SDS011;13816;53.628;9.950;2023-12-20T01:23:30;15.73;;;2.40;;
26040;SDS011;13816;53.628;9.950;2023-12-20T01:25:58;20.20;;;3.47;;
26040;SDS011;13816;53.628;9.950;2023-12-20T01:28:29;12.87;;;2.30;;
26040;SDS011;13816;53.628;9.950;2023-12-20T01:30:57;14.33;;;2.27;;
26040;SDS011;13816;53.628;9.950;2023-12-20T01:33:24;23.43;;;3.50;;
26040;SDS011;13816;53.628;9.950;2023-12-20T01:35:51;16.50;;;2.70;;
26040;SDS011;13816;53.628;9.950;2023-12-20T01:38:18;18.97;;;3.93;;
26040;SDS011;13816;53.628;9.950;2023-12-20T01:40:46;12.13;;;2.40;;
26040;SDS011;13816;53.628;9.950;2023-12-20T01:43:13;17.27;;;3.20;;
26040;SDS011;13816;53.628;9.950;2023-12-20T01:45:40;14.70;;;2.97;;
26040;SDS011;13816;53.628;9.950;2023-12-20T01:48:08;19.17;;;2.60;;
26040;SDS011;13816;53.628;9.950;2023-12-20T01:50:36;22.33;;;3.70;;
26040;SDS011;13816;53.628;9.950;2023-12-20T01:53:05;15.00;;;2.80;;
26040;SDS011;13816;53.628;9.950;2023-12-20T01:55:36;20.33;;;2.60;;
26040;SDS011;13816;53.628;9.950;2023-12-20T02:00:49;23.20;;;2.83;;
26040;SDS011;13816;53.628;9.950;2023-12-20T02:03:17;14.43;;;2.60;;
26040;SDS011;13816;53.628;9.950;2023-12-20T02:05:45;24.20;;;2.60;;
26040;SDS011;13816;53.628;9.950;2023-12-20T02:08:13;14.40;;;3.00;;
26040;SDS011;13816;53.628;9.950;2023-12-20T02:10:40;9.50;;;2.43;;
26040;SDS011;13816;53.628;9.950;2023-12-20T02:13:08;30.73;;;3.13;;
26040;SDS011;13816;53.628;9.950;2023-12-20T02:15:35;18.70;;;2.80;;
26040;SDS011;13816;53.628;9.950;2023-12-20T02:18:04;13.97;;;3.07;;
26040;SDS011;13816;53.628;9.950;2023-12-20T02:20:31;22.37;;;3.17;;
26040;SDS011;13816;53.628;9.950;2023-12-20T02:22:59;14.10;;;2.40;;
26040;SDS011;13816;53.628;9.950;2023-12-20T02:25:26;18.00;;;3.03;;
26040;SDS011;13816;53.628;9.950;2023-12-20T02:27:53;16.30;;;2.63;;
26040;SDS011;13816;53.628;9.950;2023-12-20T02:30:20;8.97;;;2.10;;
26040;SDS011;13816;53.628;9.950;2023-12-20T02:32:49;14.70;;;3.53;;
26040;SDS011;13816;53.628;9.950;2023-12-20T02:35:17;18.63;;;3.67;;
26040;SDS011;13816;53.628;9.950;2023-12-20T02:37:47;18.73;;;3.70;;
26040;SDS011;13816;53.628;9.950;2023-12-20T02:40:15;18.63;;;2.60;;
26040;SDS011;13816;53.628;9.950;2023-12-20T02:42:43;14.27;;;2.27;;
26040;SDS011;13816;53.628;9.950;2023-12-20T02:45:10;15.27;;;2.30;;
26040;SDS011;13816;53.628;9.950;2023-12-20T02:47:38;15.07;;;3.13;;
26040;SDS011;13816;53.628;9.950;2023-12-20T02:50:05;13.77;;;3.07;;
26040;SDS011;13816;53.628;9.950;2023-12-20T02:52:32;10.93;;;3.47;;
26040;SDS011;13816;53.628;9.950;2023-12-20T02:54:59;15.60;;;3.07;;
26040;SDS011;13816;53.628;9.950;2023-12-20T02:57:26;22.53;;;2.90;;
26040;SDS011;13816;53.628;9.950;2023-12-20T02:59:53;18.07;;;2.73;;
26040;SDS011;13816;53.628;9.950;2023-12-20T03:02:21;15.33;;;2.80;;
26040;SDS011;13816;53.628;9.950;2023-12-20T03:04:48;17.57;;;2.30;;
26040;SDS011;13816;53.628;9.950;2023-12-20T03:07:15;32.50;;;2.53;;
26040;SDS011;13816;53.628;9.950;2023-12-20T03:09:42;21.77;;;2.70;;
26040;SDS011;13816;53.628;9.950;2023-12-20T03:12:19;16.50;;;2.80;;
26040;SDS011;13816;53.628;9.950;2023-12-20T03:14:46;13.00;;;2.67;;
26040;SDS011;13816;53.628;9.950;2023-12-20T03:17:14;18.67;;;3.60;;
26040;SDS011;13816;53.628;9.950;2023-12-20T03:19:42;15.07;;;2.70;;
26040;SDS011;13816;53.628;9.950;2023-12-20T03:22:09;11.23;;;2.03;;
26040;SDS011;13816;53.628;9.950;2023-12-20T03:24:37;17.63;;;3.43;;
26040;SDS011;13816;53.628;9.950;2023-12-20T03:27:04;15.13;;;2.97;;
26040;SDS011;13816;53.628;9.950;2023-12-20T03:29:31;13.13;;;3.10;;
26040;SDS011;13816;53.628;9.950;2023-12-20T03:31:58;14.27;;;3.10;;
26040;SDS011;13816;53.628;9.950;2023-12-20T03:34:26;9.50;;;2.37;;
26040;SDS011;13816;53.628;9.950;2023-12-20T03:36:53;10.13;;;2.87;;
26040;SDS011;13816;53.628;9.950;2023-12-20T03:39:20;10.20;;;2.90;;
26040;SDS011;13816;53.628;9.950;2023-12-20T03:41:47;11.20;;;2.63;;
26040;SDS011;13816;53.628;9.950;2023-12-20T03:44:14;14.40;;;2.60;;
26040;SDS011;13816;53.628;9.950;2023-12-20T03:46:41;12.57;;;2.87;;
26040;SDS011;13816;53.628;9.950;2023-12-20T03:49:08;11.40;;;2.63;;
26040;SDS011;13816;53.628;9.950;2023-12-20T03:51:36;9.43;;;2.27;;
26040;SDS011;13816;53.628;9.950;2023-12-20T03:54:03;20.67;;;3.13;;
26040;SDS011;13816;53.628;9.950;2023-12-20T03:56:30;12.80;;;2.60;;
26040;SDS011;13816;53.628;9.950;2023-12-20T03:58:57;12.40;;;2.47;;
26040;SDS011;13816;53.628;9.950;2023-12-20T04:01:27;15.13;;;2.80;;
26040;SDS011;13816;53.628;9.950;2023-12-20T04:03:55;14.10;;;2.70;;
26040;SDS011;13816;53.628;9.950;2023-12-20T04:06:22;10.17;;;2.60;;
26040;SDS011;13816;53.628;9.950;2023-12-20T04:08:49;16.03;;;2.80;;
26040;SDS011;13816;53.628;9.950;2023-12-20T04:11:16;12.30;;;2.50;;
26040;SDS011;13816;53.628;9.950;2023-12-20T04:13:43;12.60;;;3.20;;
26040;SDS011;13816;53.628;9.950;2023-12-20T04:16:11;14.33;;;3.40;;
26040;SDS011;13816;53.628;9.950;2023-12-20T04:18:39;18.60;;;2.80;;
26040;SDS011;13816;53.628;9.950;2023-12-20T04:21:06;9.80;;;2.40;;
26040;SDS011;13816;53.628;9.950;2023-12-20T04:23:34;18.13;;;4.00;;
26040;SDS011;13816;53.628;9.950;2023-12-20T04:26:01;11.93;;;2.60;;
26040;SDS011;13816;53.628;9.950;2023-12-20T04:28:28;11.53;;;3.10;;
26040;SDS011;13816;53.628;9.950;2023-12-20T04:30:58;15.50;;;3.23;;
26040;SDS011;13816;53.628;9.950;2023-12-20T04:33:26;13.93;;;3.67;;
26040;SDS011;13816;53.628;9.950;2023-12-20T04:35:53;15.10;;;3.90;;
26040;SDS011;13816;53.628;9.950;2023-12-20T04:38:20;12.43;;;3.77;;
26040;SDS011;13816;53.628;9.950;2023-12-20T04:40:47;19.50;;;3.23;;
26040;SDS011;13816;53.628;9.950;2023-12-20T04:43:15;17.03;;;2.67;;
26040;SDS011;13816;53.628;9.950;2023-12-20T04:45:42;23.20;;;2.60;;
26040;SDS011;13816;53.628;9.950;2023-12-20T04:48:10;8.60;;;2.50;;
26040;SDS011;13816;53.628;9.950;2023-12-20T04:50:38;13.57;;;3.40;;
26040;SDS011;13816;53.628;9.950;2023-12-20T04:53:06;12.50;;;2.47;;
26040;SDS011;13816;53.628;9.950;2023-12-20T04:55:33;15.23;;;2.73;;
26040;SDS011;13816;53.628;9.950;2023-12-20T04:58:00;15.20;;;3.40;;
26040;SDS011;13816;53.628;9.950;2023-12-20T05:00:27;13.07;;;2.97;;
26040;SDS011;13816;53.628;9.950;2023-12-20T05:02:54;19.63;;;4.10;;
26040;SDS011;13816;53.628;9.950;2023-12-20T05:05:22;17.00;;;2.57;;
26040;SDS011;13816;53.628;9.950;2023-12-20T05:07:50;13.40;;;2.40;;
26040;SDS011;13816;53.628;9.950;2023-12-20T05:10:17;20.10;;;2.80;;
26040;SDS011;13816;53.628;9.950;2023-12-20T05:12:44;18.73;;;3.77;;
26040;SDS011;13816;53.628;9.950;2023-12-20T05:15:11;13.40;;;2.40;;
26040;SDS011;13816;53.628;9.950;2023-12-20T05:17:38;9.13;;;2.70;;
26040;SDS011;13816;53.628;9.950;2023-12-20T05:20:06;19.67;;;3.63;;
26040;SDS011;13816;53.628;9.950;2023-12-20T05:22:34;16.83;;;3.27;;
26040;SDS011;13816;53.628;9.950;2023-12-20T05:25:01;14.57;;;2.50;;
26040;SDS011;13816;53.628;9.950;2023-12-20T05:27:31;12.67;;;2.70;;
26040;SDS011;13816;53.628;9.950;2023-12-20T05:29:58;17.20;;;3.10;;
26040;SDS011;13816;53.628;9.950;2023-12-20T05:32:25;18.13;;;3.37;;
26040;SDS011;13816;53.628;9.950;2023-12-20T05:34:52;18.00;;;3.27;;
26040;SDS011;13816;53.628;9.950;2023-12-20T05:37:19;18.10;;;3.17;;
26040;SDS011;13816;53.628;9.950;2023-12-20T05:39:46;11.83;;;3.03;;
26040;SDS011;13816;53.628;9.950;2023-12-20T05:42:13;19.00;;;3.57;;
26040;SDS011;13816;53.628;9.950;2023-12-20T05:44:41;17.10;;;3.97;;
26040;SDS011;13816;53.628;9.950;2023-12-20T05:47:08;28.00;;;4.20;;
26040;SDS011;13816;53.628;9.950;2023-12-20T05:49:35;15.83;;;3.27;;
26040;SDS011;13816;53.628;9.950;2023-12-20T05:52:02;18.37;;;4.20;;
26040;SDS011;13816;53.628;9.950;2023-12-20T05:54:29;13.77;;;3.20;;
26040;SDS011;13816;53.628;9.950;2023-12-20T05:56:57;26.23;;;3.97;;
26040;SDS011;13816;53.628;9.950;2023-12-20T05:59:24;23.77;;;3.20;;
26040;SDS011;13816;53.628;9.950;2023-12-20T06:01:51;20.57;;;3.80;;
26040;SDS011;13816;53.628;9.950;2023-12-20T06:04:18;18.57;;;3.40;;
26040;SDS011;13816;53.628;9.950;2023-12-20T06:06:48;17.67;;;4.00;;
26040;SDS011;13816;53.628;9.950;2023-12-20T06:09:15;21.73;;;4.00;;
26040;SDS011;13816;53.628;9.950;2023-12-20T06:11:42;28.67;;;4.13;;
26040;SDS011;13816;53.628;9.950;2023-12-20T06:14:09;21.03;;;3.80;;
26040;SDS011;13816;53.628;9.950;2023-12-20T06:16:36;10.70;;;2.63;;
26040;SDS011;13816;53.628;9.950;2023-12-20T06:19:04;14.70;;;3.47;;
26040;SDS011;13816;53.628;9.950;2023-12-20T06:21:31;20.47;;;3.50;;
26040;SDS011;13816;53.628;9.950;2023-12-20T06:23:59;15.70;;;3.00;;
26040;SDS011;13816;53.628;9.950;2023-12-20T06:26:26;21.87;;;4.50;;
26040;SDS011;13816;53.628;9.950;2023-12-20T06:28:53;22.20;;;3.80;;
26040;SDS011;13816;53.628;9.950;2023-12-20T06:31:20;13.07;;;3.10;;
26040;SDS011;13816;53.628;9.950;2023-12-20T06:33:48;13.93;;;3.30;;
26040;SDS011;13816;53.628;9.950;2023-12-20T06:36:24;14.70;;;3.00;;
26040;SDS011;13816;53.628;9.950;2023-12-20T06:38:52;17.60;;;3.43;;
26040;SDS011;13816;53.628;9.950;2023-12-20T06:41:19;13.50;;;3.13;;
26040;SDS011;13816;53.628;9.950;2023-12-20T06:43:46;17.33;;;3.00;;
26040;SDS011;13816;53.628;9.950;2023-12-20T06:46:15;20.63;;;5.00;;
26040;SDS011;13816;53.628;9.950;2023-12-20T06:48:43;23.70;;;3.00;;
26040;SDS011;13816;53.628;9.950;2023-12-20T06:51:11;18.53;;;3.00;;
26040;SDS011;13816;53.628;9.950;2023-12-20T06:53:40;29.70;;;4.50;;
26040;SDS011;13816;53.628;9.950;2023-12-20T06:56:08;11.93;;;3.03;;
26040;SDS011;13816;53.628;9.950;2023-12-20T06:58:36;21.50;;;3.33;;
26040;SDS011;13816;53.628;9.950;2023-12-20T07:01:04;14.10;;;3.80;;
26040;SDS011;13816;53.628;9.950;2023-12-20T07:03:31;14.53;;;4.33;;
26040;SDS011;13816;53.628;9.950;2023-12-20T07:05:58;17.10;;;4.07;;
26040;SDS011;13816;53.628;9.950;2023-12-20T07:08:26;15.63;;;3.17;;
26040;SDS011;13816;53.628;9.950;2023-12-20T07:10:53;16.87;;;3.20;;
26040;SDS011;13816;53.628;9.950;2023-12-20T07:13:20;21.20;;;3.20;;
26040;SDS011;13816;53.628;9.950;2023-12-20T07:15:49;25.13;;;3.13;;
26040;SDS011;13816;53.628;9.950;2023-12-20T07:18:16;18.73;;;2.83;;
26040;SDS011;13816;53.628;9.950;2023-12-20T07:20:43;14.03;;;3.40;;
26040;SDS011;13816;53.628;9.950;2023-12-20T07:23:10;20.83;;;4.53;;
26040;SDS011;13816;53.628;9.950;2023-12-20T07:25:37;10.43;;;2.70;;
26040;SDS011;13816;53.628;9.950;2023-12-20T07:28:05;35.20;;;5.47;;
26040;SDS011;13816;53.628;9.950;2023-12-20T07:30:32;19.13;;;3.40;;
26040;SDS011;13816;53.628;9.950;2023-12-20T07:32:59;26.80;;;4.07;;
26040;SDS011;13816;53.628;9.950;2023-12-20T07:35:27;15.43;;;3.90;;
26040;SDS011;13816;53.628;9.950;2023-12-20T07:37:54;18.93;;;3.70;;
26040;SDS011;13816;53.628;9.950;2023-12-20T07:40:22;16.23;;;3.63;;
26040;SDS011;13816;53.628;9.950;2023-12-20T07:42:50;19.30;;;4.13;;
26040;SDS011;13816;53.628;9.950;2023-12-20T07:45:17;19.43;;;4.73;;
26040;SDS011;13816;53.628;9.950;2023-12-20T07:47:44;25.57;;;4.53;;
26040;SDS011;13816;53.628;9.950;2023-12-20T07:50:11;17.60;;;4.03;;
26040;SDS011;13816;53.628;9.950;2023-12-20T07:52:39;24.30;;;4.27;;
26040;SDS011;13816;53.628;9.950;2023-12-20T07:55:06;17.43;;;3.50;;
26040;SDS011;13816;53.628;9.950;2023-12-20T07:57:33;21.37;;;3.83;;
26040;SDS011;13816;53.628;9.950;2023-12-20T08:00:01;24.60;;;4.07;;
26040;SDS011;13816;53.628;9.950;2023-12-20T08:02:30;13.07;;;4.07;;
26040;SDS011;13816;53.628;9.950;2023-12-20T08:04:57;23.40;;;3.70;;
26040;SDS011;13816;53.628;9.950;2023-12-20T08:07:24;19.13;;;4.30;;
26040;SDS011;13816;53.628;9.950;2023-12-20T08:09:51;12.77;;;4.00;;
26040;SDS011;13816;53.628;9.950;2023-12-20T08:12:19;16.57;;;3.40;;
26040;SDS011;13816;53.628;9.950;2023-12-20T08:14:46;22.27;;;3.60;;
26040;SDS011;13816;53.628;9.950;2023-12-20T08:17:13;20.33;;;4.23;;
26040;SDS011;13816;53.628;9.950;2023-12-20T08:19:42;18.83;;;4.20;;
26040;SDS011;13816;53.628;9.950;2023-12-20T08:22:10;23.90;;;4.80;;
26040;SDS011;13816;53.628;9.950;2023-12-20T08:24:38;10.70;;;3.00;;
26040;SDS011;13816;53.628;9.950;2023-12-20T08:27:05;22.43;;;3.60;;
26040;SDS011;13816;53.628;9.950;2023-12-20T08:29:32;15.83;;;4.03;;
26040;SDS011;13816;53.628;9.950;2023-12-20T08:31:59;21.50;;;4.80;;
26040;SDS011;13816;53.628;9.950;2023-12-20T08:34:26;24.77;;;6.40;;
26040;SDS011;13816;53.628;9.950;2023-12-20T08:36:54;17.73;;;3.60;;
26040;SDS011;13816;53.628;9.950;2023-12-20T08:39:21;17.47;;;4.77;;
26040;SDS011;13816;53.628;9.950;2023-12-20T08:41:48;17.73;;;3.97;;
26040;SDS011;13816;53.628;9.950;2023-12-20T08:44:15;21.13;;;4.30;;
26040;SDS011;13816;53.628;9.950;2023-12-20T08:46:43;17.30;;;4.13;;
26040;SDS011;13816;53.628;9.950;2023-12-20T08:49:10;21.37;;;4.33;;
26040;SDS011;13816;53.628;9.950;2023-12-20T08:51:37;19.30;;;4.70;;
26040;SDS011;13816;53.628;9.950;2023-12-20T08:54:07;24.23;;;4.47;;
26040;SDS011;13816;53.628;9.950;2023-12-20T08:56:34;31.80;;;7.30;;
26040;SDS011;13816;53.628;9.950;2023-12-20T08:59:01;15.27;;;4.30;;
26040;SDS011;13816;53.628;9.950;2023-12-20T09:01:28;25.87;;;6.70;;
26040;SDS011;13816;53.628;9.950;2023-12-20T09:03:56;16.63;;;4.07;;
26040;SDS011;13816;53.628;9.950;2023-12-20T09:06:23;17.70;;;5.50;;
26040;SDS011;13816;53.628;9.950;2023-12-20T09:08:51;17.03;;;4.67;;
26040;SDS011;13816;53.628;9.950;2023-12-20T09:11:18;15.83;;;3.70;;
26040;SDS011;13816;53.628;9.950;2023-12-20T09:13:45;13.37;;;3.10;;
26040;SDS011;13816;53.628;9.950;2023-12-20T09:16:12;15.73;;;3.07;;
26040;SDS011;13816;53.628;9.950;2023-12-20T09:18:42;14.57;;;3.10;;
26040;SDS011;13816;53.628;9.950;2023-12-20T09:21:09;8.17;;;2.30;;
26040;SDS011;13816;53.628;9.950;2023-12-20T09:23:36;11.73;;;3.10;;
26040;SDS011;13816;53.628;9.950;2023-12-20T09:26:03;15.43;;;2.77;;
26040;SDS011;13816;53.628;9.950;2023-12-20T09:28:31;5.90;;;2.13;;
26040;SDS011;13816;53.628;9.950;2023-12-20T09:31:03;7.97;;;1.90;;
26040;SDS011;13816;53.628;9.950;2023-12-20T09:33:32;6.10;;;2.20;;
26040;SDS011;13816;53.628;9.950;2023-12-20T09:36:00;5.60;;;1.87;;
26040;SDS011;13816;53.628;9.950;2023-12-20T09:38:27;8.13;;;2.67;;
26040;SDS011;13816;53.628;9.950;2023-12-20T09:40:55;5.40;;;2.37;;
26040;SDS011;13816;53.628;9.950;2023-12-20T09:43:23;9.20;;;2.83;;
26040;SDS011;13816;53.628;9.950;2023-12-20T09:45:53;8.70;;;2.30;;
26040;SDS011;13816;53.628;9.950;2023-12-20T09:48:20;4.30;;;1.27;;
26040;SDS011;13816;53.628;9.950;2023-12-20T09:50:47;6.97;;;1.60;;
26040;SDS011;13816;53.628;9.950;2023-12-20T09:53:17;5.23;;;1.40;;
26040;SDS011;13816;53.628;9.950;2023-12-20T09:55:46;2.57;;;1.20;;
26040;SDS011;13816;53.628;9.950;2023-12-20T09:58:13;1.83;;;1.20;;
26040;SDS011;13816;53.628;9.950;2023-12-20T10:00:40;5.00;;;1.20;;
26040;SDS011;13816;53.628;9.950;2023-12-20T10:03:07;3.03;;;1.00;;
26040;SDS011;13816;53.628;9.950;2023-12-20T10:05:35;8.37;;;1.20;;
26040;SDS011;13816;53.628;9.950;2023-12-20T10:08:02;2.00;;;1.27;;
26040;SDS011;13816;53.628;9.950;2023-12-20T10:10:30;2.67;;;1.20;;
26040;SDS011;13816;53.628;9.950;2023-12-20T10:13:03;3.77;;;1.17;;
26040;SDS011;13816;53.628;9.950;2023-12-20T10:15:36;7.87;;;1.57;;
26040;SDS011;13816;53.628;9.950;2023-12-20T10:18:04;3.13;;;1.60;;
26040;SDS011;13816;53.628;9.950;2023-12-20T10:20:31;6.17;;;1.63;;
26040;SDS011;13816;53.628;9.950;2023-12-20T10:22:59;10.00;;;1.53;;
26040;SDS011;13816;53.628;9.950;2023-12-20T10:25:27;4.50;;;1.97;;
26040;SDS011;13816;53.628;9.950;2023-12-20T10:30:39;3.83;;;2.17;;
26040;SDS011;13816;53.628;9.950;2023-12-20T10:33:07;3.73;;;2.47;;
26040;SDS011;13816;53.628;9.950;2023-12-20T10:35:34;8.93;;;2.00;;
26040;SDS011;13816;53.628;9.950;2023-12-20T10:38:03;4.90;;;1.60;;
26040;SDS011;13816;53.628;9.950;2023-12-20T10:40:35;4.13;;;1.33;;
26040;SDS011;13816;53.628;9.950;2023-12-20T10:43:04;5.83;;;1.37;;
26040;SDS011;13816;53.628;9.950;2023-12-20T10:45:31;3.43;;;1.50;;
26040;SDS011;13816;53.628;9.950;2023-12-20T10:47:59;5.07;;;1.40;;
26040;SDS011;13816;53.628;9.950;2023-12-20T10:50:28;11.27;;;1.60;;
26040;SDS011;13816;53.628;9.950;2023-12-20T10:52:56;2.60;;;1.60;;
26040;SDS011;13816;53.628;9.950;2023-12-20T10:55:24;7.67;;;1.67;;
26040;SDS011;13816;53.628;9.950;2023-12-20T10:57:52;4.33;;;1.13;;
26040;SDS011;13816;53.628;9.950;2023-12-20T11:00:35;6.07;;;1.53;;
26040;SDS011;13816;53.628;9.950;2023-12-20T11:03:10;9.30;;;1.53;;
26040;SDS011;13816;53.628;9.950;2023-12-20T11:06:03;13.60;;;1.90;;
26040;SDS011;13816;53.628;9.950;2023-12-20T11:08:47;5.00;;;2.00;;
26040;SDS011;13816;53.628;9.950;2023-12-20T11:14:20;8.07;;;1.90;;
26040;SDS011;13816;53.628;9.950;2023-12-20T11:17:04;14.00;;;2.57;;
26040;SDS011;13816;53.628;9.950;2023-12-20T11:19:32;8.67;;;1.83;;
26040;SDS011;13816;53.628;9.950;2023-12-20T11:22:03;16.47;;;2.17;;
26040;SDS011;13816;53.628;9.950;2023-12-20T11:24:32;9.83;;;1.77;;
26040;SDS011;13816;53.628;9.950;2023-12-20T11:27:00;4.00;;;1.20;;
26040;SDS011;13816;53.628;9.950;2023-12-20T11:29:35;5.13;;;1.57;;
26040;SDS011;13816;53.628;9.950;2023-12-20T11:32:03;2.97;;;1.00;;
26040;SDS011;13816;53.628;9.950;2023-12-20T11:34:51;7.53;;;1.10;;
26040;SDS011;13816;53.628;9.950;2023-12-20T11:37:20;2.67;;;1.00;;
26040;SDS011;13816;53.628;9.950;2023-12-20T11:40:06;4.60;;;1.23;;
26040;SDS011;13816;53.628;9.950;2023-12-20T11:42:39;4.33;;;1.40;;
26040;SDS011;13816;53.628;9.950;2023-12-20T11:45:14;6.80;;;2.60;;
26040;SDS011;13816;53.628;9.950;2023-12-20T11:47:44;12.40;;;3.37;;
26040;SDS011;13816;53.628;9.950;2023-12-20T11:50:13;9.73;;;2.40;;
26040;SDS011;13816;53.628;9.950;2023-12-20T11:52:40;9.40;;;2.43;;
26040;SDS011;13816;53.628;9.950;2023-12-20T11:55:07;12.37;;;2.30;;
26040;SDS011;13816;53.628;9.950;2023-12-20T11:57:35;9.70;;;2.13;;
26040;SDS011;13816;53.628;9.950;2023-12-20T12:00:03;7.80;;;2.53;;
26040;SDS011;13816;53.628;9.950;2023-12-20T12:02:37;18.80;;;2.60;;
26040;SDS011;13816;53.628;9.950;2023-12-20T12:05:04;16.67;;;4.17;;
26040;SDS011;13816;53.628;9.950;2023-12-20T12:07:33;14.70;;;2.53;;
26040;SDS011;13816;53.628;9.950;2023-12-20T12:10:01;11.77;;;2.87;;
26040;SDS011;13816;53.628;9.950;2023-12-20T12:12:30;12.27;;;2.90;;
26040;SDS011;13816;53.628;9.950;2023-12-20T12:14:58;17.00;;;3.03;;
26040;SDS011;13816;53.628;9.950;2023-12-20T12:17:26;14.13;;;3.13;;
26040;SDS011;13816;53.628;9.950;2023-12-20T12:20:01;15.07;;;3.67;;
26040;SDS011;13816;53.628;9.950;2023-12-20T12:22:32;17.13;;;3.87;;
26040;SDS011;13816;53.628;9.950;2023-12-20T12:25:08;8.43;;;2.70;;
26040;SDS011;13816;53.628;9.950;2023-12-20T12:27:40;21.43;;;3.90;;
26040;SDS011;13816;53.628;9.950;2023-12-20T12:30:08;24.70;;;5.60;;
26040;SDS011;13816;53.628;9.950;2023-12-20T12:32:36;24.37;;;4.27;;
26040;SDS011;13816;53.628;9.950;2023-12-20T12:35:04;18.17;;;4.40;;
26040;SDS011;13816;53.628;9.950;2023-12-20T12:37:36;17.10;;;3.80;;
26040;SDS011;13816;53.628;9.950;2023-12-20T12:40:09;20.20;;;3.87;;
26040;SDS011;13816;53.628;9.950;2023-12-20T12:42:38;16.63;;;3.60;;
26040;SDS011;13816;53.628;9.950;2023-12-20T12:45:05;23.20;;;3.30;;
26040;SDS011;13816;53.628;9.950;2023-12-20T12:47:33;20.80;;;3.67;;
26040;SDS011;13816;53.628;9.950;2023-12-20T12:50:01;20.27;;;3.60;;
26040;SDS011;13816;53.628;9.950;2023-12-20T12:52:29;23.00;;;4.43;;
26040;SDS011;13816;53.628;9.950;2023-12-20T12:54:57;17.90;;;3.87;;
26040;SDS011;13816;53.628;9.950;2023-12-20T12:57:24;13.80;;;4.33;;
26040;SDS011;13816;53.628;9.950;2023-12-20T12:59:51;21.87;;;3.23;;
26040;SDS011;13816;53.628;9.950;2023-12-20T13:02:18;24.57;;;3.70;;
26040;SDS011;13816;53.628;9.950;2023-12-20T13:04:45;17.40;;;3.47;;
26040;SDS011;13816;53.628;9.950;2023-12-20T13:07:13;20.53;;;4.00;;
26040;SDS011;13816;53.628;9.950;2023-12-20T13:09:40;19.83;;;4.03;;
26040;SDS011;13816;53.628;9.950;2023-12-20T13:12:07;17.70;;;4.07;;
26040;SDS011;13816;53.628;9.950;2023-12-20T13:14:35;17.93;;;4.03;;
26040;SDS011;13816;53.628;9.950;2023-12-20T13:17:04;22.93;;;4.23;;
26040;SDS011;13816;53.628;9.950;2023-12-20T13:19:32;15.83;;;4.07;;
26040;SDS011;13816;53.628;9.950;2023-12-20T13:21:59;16.60;;;3.20;;
26040;SDS011;13816;53.628;9.950;2023-12-20T13:24:26;19.60;;;4.30;;
26040;SDS011;13816;53.628;9.950;2023-12-20T13:26:53;27.13;;;3.83;;
26040;SDS011;13816;53.628;9.950;2023-12-20T13:29:21;19.30;;;3.60;;
26040;SDS011;13816;53.628;9.950;2023-12-20T13:31:51;20.90;;;3.60;;
26040;SDS011;13816;53.628;9.950;2023-12-20T13:34:24;27.77;;;4.40;;
26040;SDS011;13816;53.628;9.950;2023-12-20T13:36:55;18.07;;;4.10;;
26040;SDS011;13816;53.628;9.950;2023-12-20T13:39:23;21.13;;;4.57;;
26040;SDS011;13816;53.628;9.950;2023-12-20T13:41:51;27.00;;;3.93;;
26040;SDS011;13816;53.628;9.950;2023-12-20T13:44:21;18.30;;;3.67;;
26040;SDS011;13816;53.628;9.950;2023-12-20T13:46:50;16.43;;;4.53;;
26040;SDS011;13816;53.628;9.950;2023-12-20T13:49:17;18.47;;;4.00;;
26040;SDS011;13816;53.628;9.950;2023-12-20T13:51:44;17.60;;;5.10;;
26040;SDS011;13816;53.628;9.950;2023-12-20T13:54:11;17.70;;;4.87;;
26040;SDS011;13816;53.628;9.950;2023-12-20T13:56:39;18.53;;;5.40;;
26040;SDS011;13816;53.628;9.950;2023-12-20T13:59:12;18.97;;;4.70;;
26040;SDS011;13816;53.628;9.950;2023-12-20T14:01:40;26.67;;;4.63;;
26040;SDS011;13816;53.628;9.950;2023-12-20T14:04:07;23.03;;;4.87;;
26040;SDS011;13816;53.628;9.950;2023-12-20T14:06:34;27.80;;;6.50;;
26040;SDS011;13816;53.628;9.950;2023-12-20T14:09:04;21.60;;;5.60;;
26040;SDS011;13816;53.628;9.950;2023-12-20T14:11:32;25.97;;;5.30;;
26040;SDS011;13816;53.628;9.950;2023-12-20T14:14:00;33.00;;;5.87;;
26040;SDS011;13816;53.628;9.950;2023-12-20T14:16:28;20.90;;;4.97;;
26040;SDS011;13816;53.628;9.950;2023-12-20T14:18:55;32.70;;;5.40;;
26040;SDS011;13816;53.628;9.950;2023-12-20T14:21:24;24.43;;;5.80;;
26040;SDS011;13816;53.628;9.950;2023-12-20T14:23:51;32.00;;;5.63;;
26040;SDS011;13816;53.628;9.950;2023-12-20T14:26:18;22.60;;;5.33;;
26040;SDS011;13816;53.628;9.950;2023-12-20T14:28:45;20.63;;;5.03;;
26040;SDS011;13816;53.628;9.950;2023-12-20T14:31:12;21.97;;;5.60;;
26040;SDS011;13816;53.628;9.950;2023-12-20T14:33:40;16.87;;;4.20;;
26040;SDS011;13816;53.628;9.950;2023-12-20T14:36:08;24.90;;;6.03;;
26040;SDS011;13816;53.628;9.950;2023-12-20T14:38:35;18.17;;;4.93;;
26040;SDS011;13816;53.628;9.950;2023-12-20T14:41:02;12.07;;;4.53;;
26040;SDS011;13816;53.628;9.950;2023-12-20T14:43:32;19.67;;;5.00;;
26040;SDS011;13816;53.628;9.950;2023-12-20T14:45:59;18.57;;;5.00;;
26040;SDS011;13816;53.628;9.950;2023-12-20T14:48:26;23.47;;;4.50;;
26040;SDS011;13816;53.628;9.950;2023-12-20T14:50:55;24.20;;;4.03;;